createdAt,value
2019-06-08T00:00:46.578Z,26.46
2019-06-08T00:01:47.403Z,26.18
2019-06-08T00:02:47.819Z,26.15
2019-06-08T00:03:48.130Z,26.29
2019-06-08T00:04:48.452Z,26.02
2019-06-08T00:05:48.659Z,25.98
2019-06-08T00:06:48.665Z,26.05
2019-06-08T00:07:48.981Z,26.16
2019-06-08T00:08:49.728Z,26.00
2019-06-08T00:09:49.095Z,26.10
2019-06-08T00:10:49.958Z,26.13
2019-06-08T00:11:50.132Z,25.97
2019-06-08T00:12:50.144Z,25.65
2019-06-08T00:13:50.663Z,25.98
2019-06-08T00:14:50.356Z,25.83
2019-06-08T00:15:50.217Z,26.06
2019-06-08T00:16:50.980Z,26.01
2019-06-08T00:17:51.338Z,25.84
2019-06-08T00:18:51.158Z,25.78
2019-06-08T00:19:52.026Z,25.83
2019-06-08T00:20:52.137Z,25.61
2019-06-08T00:21:52.245Z,25.77
2019-06-08T00:22:52.463Z,25.63
2019-06-08T00:23:52.781Z,25.37
2019-06-08T00:24:52.646Z,25.62
2019-06-08T00:25:53.295Z,25.52
2019-06-08T00:26:53.507Z,25.58
2019-06-08T00:27:53.519Z,25.48
2019-06-08T00:28:53.367Z,25.52
2019-06-08T00:30:54.158Z,25.78
2019-06-08T00:31:54.157Z,25.68
2019-06-08T00:32:55.080Z,25.56
2019-06-08T00:33:55.296Z,25.46
2019-06-08T00:34:55.161Z,25.66
2019-06-08T00:35:55.916Z,26.07
2019-06-08T00:36:56.133Z,26.09
2019-06-08T00:37:56.358Z,26.35
2019-06-08T00:38:56.455Z,26.08
2019-06-08T00:39:56.363Z,26.43
2019-06-08T00:40:57.602Z,26.28
2019-06-08T00:41:56.985Z,26.10
2019-06-08T00:42:57.501Z,25.99
2019-06-08T00:43:57.713Z,25.93
2019-06-08T00:44:57.575Z,26.27
2019-06-08T00:45:57.996Z,25.93
2019-06-08T00:46:58.863Z,26.17
2019-06-08T00:47:59.273Z,26.08
2019-06-08T00:48:59.325Z,26.17
2019-06-08T00:49:59.693Z,26.11
2019-06-08T00:51:00.117Z,26.35
2019-06-08T00:52:00.330Z,26.28
2019-06-08T00:53:00.305Z,26.40
2019-06-08T00:54:00.953Z,26.41
2019-06-08T00:55:01.700Z,26.50
2019-06-08T00:56:01.805Z,26.71
2019-06-08T00:57:02.205Z,26.73
2019-06-08T00:58:02.484Z,26.72
2019-06-08T00:59:02.732Z,26.42
2019-06-08T01:00:10.376Z,26.60
2019-06-08T01:01:03.273Z,26.59
2019-06-08T01:02:03.594Z,26.44
2019-06-08T01:03:03.471Z,26.50
2019-06-08T01:04:03.902Z,26.36
2019-06-08T01:05:04.420Z,26.38
2019-06-08T01:06:04.620Z,26.36
2019-06-08T01:07:04.014Z,26.50
2019-06-08T01:08:05.058Z,26.23
2019-06-08T01:09:05.165Z,26.17
2019-06-08T01:10:05.071Z,26.31
2019-06-08T01:11:05.160Z,26.79
2019-06-08T01:12:05.577Z,26.65
2019-06-08T01:13:05.864Z,26.23
2019-06-08T01:14:05.812Z,26.76
2019-06-08T01:15:06.402Z,26.33
2019-06-08T01:16:06.633Z,26.25
2019-06-08T01:17:06.873Z,26.04
2019-06-08T01:18:07.254Z,26.13
2019-06-08T01:19:07.672Z,26.26
2019-06-08T01:20:08.218Z,25.83
2019-06-08T01:21:07.931Z,25.73
2019-06-08T01:22:08.765Z,25.92
2019-06-08T01:23:08.208Z,25.90
2019-06-08T01:24:09.060Z,26.02
2019-06-08T01:25:09.047Z,25.86
2019-06-08T01:26:09.984Z,26.15
2019-06-08T01:27:09.873Z,26.07
2019-06-08T01:28:10.600Z,25.93
2019-06-08T01:29:10.608Z,25.81
2019-06-08T01:30:10.621Z,26.12
2019-06-08T01:31:10.832Z,26.04
2019-06-08T01:32:11.338Z,26.17
2019-06-08T01:33:11.149Z,25.97
2019-06-08T01:34:11.146Z,25.87
2019-06-08T01:35:11.970Z,26.09
2019-06-08T01:36:12.193Z,25.92
2019-06-08T01:37:12.602Z,25.67
2019-06-08T01:38:12.814Z,25.75
2019-06-08T01:39:13.021Z,27.46
2019-06-08T01:40:13.443Z,26.52
2019-06-08T01:41:13.236Z,26.19
2019-06-08T01:42:14.125Z,26.36
2019-06-08T01:43:14.067Z,25.96
2019-06-08T01:45:15.418Z,26.09
2019-06-08T01:46:15.093Z,26.41
2019-06-08T01:47:15.535Z,26.11
2019-06-08T01:48:19.954Z,26.40
2019-06-08T01:49:15.392Z,26.03
2019-06-08T01:50:16.782Z,27.29
2019-06-08T01:51:16.492Z,26.88
2019-06-08T01:52:16.515Z,26.41
2019-06-08T01:53:17.410Z,26.46
2019-06-08T01:54:17.629Z,26.23
2019-06-08T01:55:18.043Z,26.29
2019-06-08T01:56:18.471Z,26.06
2019-06-08T01:57:18.804Z,26.21
2019-06-08T01:58:18.838Z,26.24
2019-06-08T01:59:19.341Z,26.41
2019-06-08T02:00:29.739Z,26.13
2019-06-08T02:01:19.399Z,26.12
2019-06-08T02:02:19.876Z,25.94
2019-06-08T02:03:20.183Z,26.00
2019-06-08T02:04:20.142Z,25.87
2019-06-08T02:05:20.523Z,25.45
2019-06-08T02:06:20.826Z,25.66
2019-06-08T02:07:21.153Z,26.28
2019-06-08T02:08:21.815Z,25.42
2019-06-08T02:09:22.062Z,25.24
2019-06-08T02:10:22.230Z,25.06
2019-06-08T02:11:22.323Z,25.50
2019-06-08T02:12:22.203Z,25.09
2019-06-08T02:13:23.055Z,24.87
2019-06-08T02:15:23.038Z,25.48
2019-06-08T02:16:23.214Z,24.87
2019-06-08T02:17:23.719Z,25.72
2019-06-08T02:18:36.622Z,24.89
2019-06-08T02:19:23.586Z,25.29
2019-06-08T02:20:24.196Z,25.33
2019-06-08T02:21:24.760Z,25.28
2019-06-08T02:22:24.271Z,24.77
2019-06-08T02:23:25.088Z,24.96
2019-06-08T02:24:25.099Z,25.25
2019-06-08T02:25:27.291Z,25.98
2019-06-08T02:26:27.590Z,24.86
2019-06-08T02:27:27.217Z,25.13
2019-06-08T02:28:27.418Z,25.09
2019-06-08T02:29:27.429Z,24.43
2019-06-08T02:30:28.278Z,24.43
2019-06-08T02:31:28.017Z,24.31
2019-06-08T02:32:28.633Z,24.27
2019-06-08T02:34:28.907Z,24.59
2019-06-08T02:35:28.446Z,24.61
2019-06-08T02:36:31.077Z,23.63
2019-06-08T02:37:30.801Z,24.81
2019-06-08T02:38:31.602Z,24.33
2019-06-08T02:39:30.391Z,24.54
2019-06-08T02:40:30.286Z,23.27
2019-06-08T02:41:30.810Z,23.88
2019-06-08T02:42:32.633Z,22.89
2019-06-08T02:43:30.848Z,22.68
2019-06-08T02:44:32.075Z,23.08
2019-06-08T02:45:32.134Z,23.64
2019-06-08T02:46:33.158Z,22.86
2019-06-08T02:47:32.552Z,22.52
2019-06-08T02:48:33.613Z,22.56
2019-06-08T02:49:33.143Z,22.88
2019-06-08T02:50:33.076Z,22.64
2019-06-08T02:51:34.327Z,23.24
2019-06-08T02:52:34.329Z,23.03
2019-06-08T02:53:34.130Z,22.62
2019-06-08T02:54:35.339Z,23.78
2019-06-08T02:55:35.666Z,23.18
2019-06-08T02:56:34.289Z,23.75
2019-06-08T02:57:35.585Z,22.91
2019-06-08T02:58:36.989Z,23.30
2019-06-08T02:59:35.655Z,23.22
2019-06-08T03:00:35.603Z,22.98
2019-06-08T03:01:36.158Z,22.94
2019-06-08T03:02:36.964Z,23.19
2019-06-08T03:03:38.365Z,23.61
2019-06-08T03:04:38.120Z,24.41
2019-06-08T03:05:38.117Z,23.06
2019-06-08T03:06:39.445Z,23.33
2019-06-08T03:07:38.959Z,22.81
2019-06-08T03:08:38.973Z,22.37
2019-06-08T03:09:38.647Z,22.23
2019-06-08T03:10:39.264Z,22.10
2019-06-08T03:11:39.264Z,22.71
2019-06-08T03:12:40.352Z,22.95
2019-06-08T03:13:40.352Z,23.44
2019-06-08T03:14:40.172Z,22.57
2019-06-08T03:15:41.541Z,23.60
2019-06-08T03:16:41.517Z,23.46
2019-06-08T03:17:41.892Z,23.62
2019-06-08T03:18:42.381Z,23.71
2019-06-08T03:19:41.943Z,23.38
2019-06-08T03:20:42.420Z,23.79
2019-06-08T03:21:42.321Z,23.74
2019-06-08T03:22:43.876Z,24.04
2019-06-08T03:23:43.506Z,24.33
2019-06-08T03:24:44.141Z,23.32
2019-06-08T03:25:51.942Z,24.61
2019-06-08T03:26:44.096Z,23.79
2019-06-08T03:27:43.140Z,23.24
2019-06-08T03:28:44.367Z,23.04
2019-06-08T03:29:44.089Z,24.51
2019-06-08T03:30:52.828Z,23.76
2019-06-08T03:31:54.647Z,23.08
2019-06-08T03:32:50.545Z,23.24
2019-06-08T03:33:53.139Z,24.07
2019-06-08T03:34:54.779Z,23.12
2019-06-08T03:35:56.039Z,23.61
2019-06-08T03:36:54.475Z,23.60
2019-06-08T03:37:44.890Z,23.56
2019-06-08T03:38:45.661Z,23.35
2019-06-08T03:39:45.861Z,22.42
2019-06-08T03:41:46.386Z,24.72
2019-06-08T03:42:46.246Z,22.52
2019-06-08T03:43:46.932Z,23.17
2019-06-08T03:44:47.264Z,23.33
2019-06-08T03:45:47.090Z,22.44
2019-06-08T03:46:48.099Z,22.53
2019-06-08T03:47:48.389Z,23.22
2019-06-08T03:48:48.596Z,22.96
2019-06-08T03:49:56.397Z,22.80
2019-06-08T03:50:49.325Z,23.63
2019-06-08T03:51:49.641Z,23.10
2019-06-08T03:52:50.012Z,22.48
2019-06-08T03:53:49.930Z,22.43
2019-06-08T03:54:50.469Z,22.69
2019-06-08T03:55:50.269Z,22.81
2019-06-08T03:56:51.095Z,24.90
2019-06-08T03:57:51.720Z,23.06
2019-06-08T03:58:51.173Z,22.59
2019-06-08T03:59:51.933Z,22.13
2019-06-08T04:00:52.455Z,22.60
2019-06-08T04:01:51.788Z,22.88
2019-06-08T04:02:52.369Z,23.00
2019-06-08T04:03:52.489Z,23.99
2019-06-08T04:04:52.474Z,22.90
2019-06-08T04:05:52.792Z,23.08
2019-06-08T04:06:53.105Z,23.22
2019-06-08T04:07:53.944Z,23.27
2019-06-08T04:08:53.806Z,22.85
2019-06-08T04:09:54.668Z,22.85
2019-06-08T04:10:55.083Z,22.15
2019-06-08T04:11:54.919Z,22.40
2019-06-08T04:12:55.242Z,22.35
2019-06-08T04:13:55.589Z,21.99
2019-06-08T04:14:55.989Z,21.82
2019-06-08T04:15:56.649Z,21.68
2019-06-08T04:16:56.958Z,22.87
2019-06-08T04:17:56.912Z,22.77
2019-06-08T04:18:57.409Z,22.54
2019-06-08T04:20:10.234Z,22.45
2019-06-08T04:20:58.167Z,23.08
2019-06-08T04:21:58.858Z,22.03
2019-06-08T04:22:59.352Z,21.74
2019-06-08T04:23:59.166Z,22.08
2019-06-08T04:24:59.170Z,21.99
2019-06-08T04:26:00.434Z,23.12
2019-06-08T04:26:59.486Z,22.78
2019-06-08T04:27:59.693Z,21.92
2019-06-08T04:29:00.006Z,21.96
2019-06-08T04:30:00.210Z,21.97
2019-06-08T04:31:00.293Z,22.36
2019-06-08T04:32:00.437Z,22.35
2019-06-08T04:33:00.508Z,21.86
2019-06-08T04:34:00.666Z,22.67
2019-06-08T04:35:01.073Z,22.72
2019-06-08T04:36:01.343Z,22.43
2019-06-08T04:37:01.707Z,22.75
2019-06-08T04:38:01.722Z,22.39
2019-06-08T04:39:01.753Z,22.02
2019-06-08T04:40:01.647Z,21.43
2019-06-08T04:41:02.464Z,21.90
2019-06-08T04:42:02.661Z,22.39
2019-06-08T04:43:02.865Z,22.35
2019-06-08T04:44:03.093Z,21.37
2019-06-08T04:45:03.471Z,21.56
2019-06-08T04:46:03.500Z,21.87
2019-06-08T04:47:03.709Z,21.78
2019-06-08T04:48:04.111Z,21.44
2019-06-08T04:49:04.950Z,22.05
2019-06-08T04:50:20.939Z,21.42
2019-06-08T04:51:04.999Z,22.43
2019-06-08T04:52:04.971Z,21.67
2019-06-08T04:53:05.597Z,21.75
2019-06-08T04:54:06.096Z,22.47
2019-06-08T04:55:06.236Z,21.09
2019-06-08T04:56:06.741Z,21.43
2019-06-08T04:57:06.132Z,20.82
2019-06-08T04:58:06.649Z,21.12
2019-06-08T04:59:06.766Z,21.35
2019-06-08T05:00:12.211Z,21.00
2019-06-08T05:01:07.178Z,20.88
2019-06-08T05:02:07.789Z,21.39
2019-06-08T05:03:08.214Z,21.16
2019-06-08T05:04:08.102Z,21.47
2019-06-08T05:05:08.960Z,20.99
2019-06-08T05:06:09.161Z,20.29
2019-06-08T05:07:09.168Z,21.42
2019-06-08T05:08:09.457Z,21.49
2019-06-08T05:09:09.998Z,20.23
2019-06-08T05:10:09.491Z,20.28
2019-06-08T05:11:09.609Z,20.23
2019-06-08T05:13:09.988Z,20.75
2019-06-08T05:14:10.096Z,20.64
2019-06-08T05:15:10.327Z,20.21
2019-06-08T05:16:10.522Z,22.22
2019-06-08T05:17:10.400Z,20.83
2019-06-08T05:18:10.946Z,20.26
2019-06-08T05:19:10.778Z,21.36
2019-06-08T05:20:11.678Z,20.58
2019-06-08T05:21:12.079Z,20.32
2019-06-08T05:22:12.150Z,20.34
2019-06-08T05:23:12.822Z,20.64
2019-06-08T05:24:12.173Z,20.33
2019-06-08T05:25:12.930Z,20.37
2019-06-08T05:26:12.818Z,19.82
2019-06-08T05:27:13.771Z,21.09
2019-06-08T05:28:14.393Z,20.64
2019-06-08T05:29:14.213Z,20.15
2019-06-08T05:30:14.521Z,20.35
2019-06-08T05:31:14.811Z,21.05
2019-06-08T05:32:15.435Z,19.97
2019-06-08T05:33:14.784Z,19.85
2019-06-08T05:34:15.548Z,20.69
2019-06-08T05:35:16.201Z,20.90
2019-06-08T05:36:15.646Z,20.07
2019-06-08T05:37:16.327Z,20.26
2019-06-08T05:38:16.505Z,19.50
2019-06-08T05:39:16.515Z,19.43
2019-06-08T05:40:17.231Z,20.39
2019-06-08T05:41:16.970Z,19.36
2019-06-08T05:42:17.448Z,19.14
2019-06-08T05:43:17.378Z,18.89
2019-06-08T05:44:17.565Z,19.13
2019-06-08T05:45:17.561Z,19.05
2019-06-08T05:46:18.035Z,19.55
2019-06-08T05:47:18.927Z,19.18
2019-06-08T05:48:18.835Z,19.90
2019-06-08T05:49:19.232Z,20.65
2019-06-08T05:50:19.978Z,19.79
2019-06-08T05:51:20.583Z,20.44
2019-06-08T05:52:20.585Z,20.02
2019-06-08T05:53:20.333Z,19.82
2019-06-08T05:54:21.106Z,19.39
2019-06-08T05:55:21.120Z,19.09
2019-06-08T05:56:21.323Z,19.84
2019-06-08T05:57:21.187Z,19.74
2019-06-08T05:58:21.749Z,19.14
2019-06-08T05:59:22.066Z,19.97
2019-06-08T06:00:21.909Z,19.83
2019-06-08T06:01:22.598Z,19.65
2019-06-08T06:02:22.587Z,18.73
2019-06-08T06:03:22.914Z,18.59
2019-06-08T06:04:23.336Z,19.35
2019-06-08T06:05:23.172Z,18.93
2019-06-08T06:06:23.846Z,19.27
2019-06-08T06:07:23.855Z,19.14
2019-06-08T06:08:23.876Z,18.83
2019-06-08T06:09:23.754Z,18.44
2019-06-08T06:10:24.163Z,18.62
2019-06-08T06:11:24.713Z,18.81
2019-06-08T06:12:24.564Z,18.89
2019-06-08T06:13:24.868Z,19.64
2019-06-08T06:14:25.161Z,19.50
2019-06-08T06:15:26.057Z,19.96
2019-06-08T06:16:26.585Z,19.75
2019-06-08T06:17:26.273Z,19.78
2019-06-08T06:18:26.277Z,19.33
2019-06-08T06:19:26.188Z,18.94
2019-06-08T06:20:26.946Z,19.23
2019-06-08T06:21:26.765Z,19.34
2019-06-08T06:22:27.086Z,18.79
2019-06-08T06:23:27.955Z,19.07
2019-06-08T06:24:28.271Z,19.38
2019-06-08T06:25:28.481Z,19.49
2019-06-08T06:26:28.588Z,20.00
2019-06-08T06:27:28.805Z,19.08
2019-06-08T06:28:29.037Z,19.95
2019-06-08T06:29:29.124Z,20.25
2019-06-08T06:30:29.314Z,20.82
2019-06-08T06:31:29.860Z,19.34
2019-06-08T06:32:31.189Z,18.97
2019-06-08T06:33:31.298Z,18.84
2019-06-08T06:34:29.555Z,19.16
2019-06-08T06:35:30.083Z,18.97
2019-06-08T06:36:30.396Z,18.75
2019-06-08T06:37:30.254Z,18.60
2019-06-08T06:38:30.926Z,18.56
2019-06-08T06:39:31.336Z,18.70
2019-06-08T06:40:31.100Z,18.45
2019-06-08T06:41:31.402Z,18.56
2019-06-08T06:42:32.277Z,19.76
2019-06-08T06:43:32.493Z,18.64
2019-06-08T06:44:32.806Z,19.05
2019-06-08T06:45:32.681Z,18.81
2019-06-08T06:46:33.089Z,18.76
2019-06-08T06:47:33.544Z,20.71
2019-06-08T06:48:34.274Z,19.37
2019-06-08T06:49:34.576Z,19.62
2019-06-08T06:50:34.684Z,18.61
2019-06-08T06:51:34.803Z,19.38
2019-06-08T06:52:35.109Z,18.78
2019-06-08T06:53:35.127Z,18.09
2019-06-08T06:54:35.070Z,19.19
2019-06-08T06:55:35.538Z,20.17
2019-06-08T06:56:36.385Z,18.50
2019-06-08T06:57:37.037Z,19.21
2019-06-08T06:58:36.994Z,18.51
2019-06-08T06:59:37.008Z,18.87
2019-06-08T07:00:37.496Z,17.69
2019-06-08T07:01:38.476Z,18.20
2019-06-08T07:02:38.416Z,19.62
2019-06-08T07:03:39.191Z,18.83
2019-06-08T07:04:39.144Z,19.31
2019-06-08T07:05:39.809Z,17.74
2019-06-08T07:06:40.022Z,19.05
2019-06-08T07:07:39.871Z,18.64
2019-06-08T07:08:42.048Z,19.09
2019-06-08T07:09:41.298Z,17.71
2019-06-08T07:10:41.296Z,17.31
2019-06-08T07:11:41.987Z,17.85
2019-06-08T07:12:41.794Z,19.71
2019-06-08T07:13:42.003Z,18.27
2019-06-08T07:14:42.011Z,17.44
2019-06-08T07:15:42.083Z,17.23
2019-06-08T07:16:42.947Z,17.31
2019-06-08T07:17:42.543Z,18.78
2019-06-08T07:18:42.857Z,18.47
2019-06-08T07:20:43.446Z,17.34
2019-06-08T07:21:43.061Z,17.68
2019-06-08T07:23:43.708Z,17.14
2019-06-08T07:24:43.772Z,17.06
2019-06-08T07:25:44.299Z,17.12
2019-06-08T07:26:44.448Z,18.15
2019-06-08T07:27:44.044Z,17.83
2019-06-08T07:28:44.665Z,17.26
2019-06-08T07:29:44.672Z,17.20
2019-06-08T07:30:45.047Z,17.12
2019-06-08T07:31:46.926Z,17.74
2019-06-08T07:32:46.517Z,17.21
2019-06-08T07:33:46.790Z,17.21
2019-06-08T07:34:46.702Z,17.05
2019-06-08T07:35:46.852Z,17.05
2019-06-08T07:36:48.459Z,16.80
2019-06-08T07:37:48.977Z,17.01
2019-06-08T07:38:48.687Z,16.73
2019-06-08T07:39:48.880Z,17.11
2019-06-08T07:40:48.814Z,17.23
2019-06-08T07:41:50.136Z,17.31
2019-06-08T07:42:49.699Z,17.49
2019-06-08T07:43:49.535Z,17.54
2019-06-08T07:44:49.342Z,18.79
2019-06-08T07:45:49.925Z,18.13
2019-06-08T07:46:51.400Z,17.69
2019-06-08T07:47:52.012Z,17.58
2019-06-08T07:48:52.217Z,18.00
2019-06-08T07:49:51.190Z,17.57
2019-06-08T07:50:52.251Z,16.84
2019-06-08T07:52:04.067Z,16.75
2019-06-08T07:52:52.785Z,18.56
2019-06-08T07:53:51.597Z,17.78
2019-06-08T07:54:52.879Z,18.05
2019-06-08T07:55:51.906Z,17.83
2019-06-08T07:56:52.880Z,17.80
2019-06-08T07:57:52.272Z,17.89
2019-06-08T07:58:53.272Z,17.23
2019-06-08T07:59:54.214Z,18.09
2019-06-08T08:00:54.362Z,17.49
2019-06-08T08:01:53.930Z,17.72
2019-06-08T08:02:54.332Z,18.29
2019-06-08T08:03:54.154Z,16.73
2019-06-08T08:04:54.593Z,16.33
2019-06-08T08:05:55.036Z,15.90
2019-06-08T08:06:54.866Z,16.34
2019-06-08T08:07:55.067Z,16.64
2019-06-08T08:08:54.956Z,16.46
2019-06-08T08:09:56.665Z,16.72
2019-06-08T08:10:56.711Z,16.72
2019-06-08T08:11:57.148Z,16.57
2019-06-08T08:12:56.906Z,16.25
2019-06-08T08:13:57.436Z,15.79
2019-06-08T08:14:58.080Z,15.74
2019-06-08T08:15:58.999Z,16.00
2019-06-08T08:16:57.288Z,17.05
2019-06-08T08:17:57.811Z,16.52
2019-06-08T08:18:58.101Z,15.98
2019-06-08T08:19:59.377Z,15.88
2019-06-08T08:21:09.157Z,16.98
2019-06-08T08:22:02.353Z,17.13
2019-06-08T08:23:05.568Z,16.92
2019-06-08T08:24:01.497Z,18.41
2019-06-08T08:25:04.115Z,17.74
2019-06-08T08:26:01.893Z,17.23
2019-06-08T08:27:03.512Z,17.09
2019-06-08T08:28:01.736Z,17.20
2019-06-08T08:29:03.222Z,17.73
2019-06-08T08:30:02.260Z,17.47
2019-06-08T08:31:04.993Z,17.19
2019-06-08T08:32:03.648Z,17.98
2019-06-08T08:33:07.837Z,18.03
2019-06-08T08:34:05.524Z,17.73
2019-06-08T08:35:03.260Z,17.54
2019-06-08T08:36:03.123Z,17.06
2019-06-08T08:37:06.470Z,17.14
2019-06-08T08:38:04.780Z,17.12
2019-06-08T08:39:04.681Z,17.69
2019-06-08T08:40:04.381Z,18.04
2019-06-08T08:41:08.277Z,17.25
2019-06-08T08:42:05.457Z,16.82
2019-06-08T08:43:05.193Z,17.61
2019-06-08T08:44:07.978Z,17.09
2019-06-08T08:45:08.769Z,16.96
2019-06-08T08:46:07.651Z,17.51
2019-06-08T08:47:07.638Z,17.33
2019-06-08T08:49:10.405Z,18.09
2019-06-08T08:50:07.406Z,18.00
2019-06-08T08:51:08.553Z,17.32
2019-06-08T08:52:11.222Z,17.07
2019-06-08T08:53:08.366Z,16.59
2019-06-08T08:54:08.469Z,16.06
2019-06-08T08:55:08.533Z,16.48
2019-06-08T08:56:07.508Z,17.40
2019-06-08T08:57:08.691Z,16.59
2019-06-08T08:58:08.649Z,17.13
2019-06-08T08:59:10.703Z,17.35
2019-06-08T09:00:09.149Z,16.48
2019-06-08T09:01:09.021Z,15.99
2019-06-08T09:02:11.551Z,15.73
2019-06-08T09:03:28.014Z,16.29
2019-06-08T09:04:09.510Z,16.84
2019-06-08T09:05:11.217Z,16.06
2019-06-08T09:06:10.184Z,16.46
2019-06-08T09:07:10.824Z,16.73
2019-06-08T09:08:10.858Z,15.76
2019-06-08T09:09:11.329Z,15.41
2019-06-08T09:10:11.826Z,15.37
2019-06-08T09:11:11.956Z,15.97
2019-06-08T09:12:12.170Z,15.78
2019-06-08T09:13:12.325Z,15.89
2019-06-08T09:14:14.261Z,17.06
2019-06-08T09:15:12.953Z,17.36
2019-06-08T09:16:13.633Z,16.50
2019-06-08T09:17:13.433Z,16.02
2019-06-08T09:18:13.847Z,15.54
2019-06-08T09:19:13.967Z,15.73
2019-06-08T09:20:15.928Z,15.64
2019-06-08T09:21:14.074Z,16.23
2019-06-08T09:22:14.805Z,15.84
2019-06-08T09:23:19.337Z,16.59
2019-06-08T09:24:15.289Z,16.38
2019-06-08T09:25:17.973Z,16.50
2019-06-08T09:26:17.629Z,16.31
2019-06-08T09:27:17.904Z,16.42
2019-06-08T09:28:18.526Z,17.29
2019-06-08T09:29:18.759Z,16.63
2019-06-08T09:30:18.391Z,16.65
2019-06-08T09:31:18.712Z,16.10
2019-06-08T09:32:18.000Z,15.70
2019-06-08T09:33:18.810Z,15.55
2019-06-08T09:34:19.373Z,15.62
2019-06-08T09:35:20.952Z,15.93
2019-06-08T09:36:18.472Z,16.04
2019-06-08T09:37:18.612Z,16.16
2019-06-08T09:38:19.408Z,15.65
2019-06-08T09:39:19.211Z,15.74
2019-06-08T09:40:19.061Z,16.33
2019-06-08T09:41:19.795Z,17.58
2019-06-08T09:42:21.244Z,16.18
2019-06-08T09:43:20.047Z,16.08
2019-06-08T09:44:20.585Z,16.06
2019-06-08T09:45:21.603Z,16.36
2019-06-08T09:46:21.368Z,16.49
2019-06-08T09:47:22.332Z,17.52
2019-06-08T09:48:25.186Z,15.94
2019-06-08T09:49:28.011Z,15.77
2019-06-08T09:50:23.608Z,16.24
2019-06-08T09:51:30.555Z,16.19
2019-06-08T09:52:28.209Z,15.76
2019-06-08T09:53:31.906Z,15.35
2019-06-08T09:54:23.821Z,16.63
2019-06-08T09:55:25.524Z,16.11
2019-06-08T09:56:30.206Z,15.95
2019-06-08T09:57:24.044Z,16.55
2019-06-08T09:58:24.150Z,16.27
2019-06-08T09:59:24.583Z,15.63
2019-06-08T10:00:26.358Z,15.38
2019-06-08T10:01:24.800Z,16.38
2019-06-08T10:02:28.156Z,16.99
2019-06-08T10:03:30.954Z,16.05
2019-06-08T10:04:29.202Z,15.83
2019-06-08T10:05:27.569Z,16.23
2019-06-08T10:06:27.103Z,16.32
2019-06-08T10:07:31.059Z,15.83
2019-06-08T10:08:31.005Z,16.59
2019-06-08T10:10:26.794Z,16.13
2019-06-08T10:11:28.044Z,16.55
2019-06-08T10:12:28.223Z,16.06
2019-06-08T10:13:28.058Z,15.62
2019-06-08T10:14:28.854Z,16.15
2019-06-08T10:15:28.145Z,15.76
2019-06-08T10:16:30.695Z,15.87
2019-06-08T10:17:28.779Z,16.60
2019-06-08T10:18:29.201Z,16.96
2019-06-08T10:19:29.918Z,15.98
2019-06-08T10:20:30.832Z,17.45
2019-06-08T10:21:29.521Z,15.72
2019-06-08T10:22:29.854Z,15.51
2019-06-08T10:23:34.223Z,16.76
2019-06-08T10:24:30.012Z,15.71
2019-06-08T10:25:30.981Z,15.84
2019-06-08T10:26:30.824Z,15.60
2019-06-08T10:27:31.723Z,16.15
2019-06-08T10:28:32.120Z,16.12
2019-06-08T10:29:32.128Z,16.39
2019-06-08T10:30:33.293Z,17.06
2019-06-08T10:31:39.019Z,16.51
2019-06-08T10:32:33.117Z,17.78
2019-06-08T10:33:33.420Z,16.21
2019-06-08T10:34:34.105Z,15.91
2019-06-08T10:35:33.885Z,16.14
2019-06-08T10:36:34.671Z,16.11
2019-06-08T10:37:34.650Z,16.10
2019-06-08T10:38:35.148Z,16.01
2019-06-08T10:39:35.022Z,15.47
2019-06-08T10:40:35.486Z,16.43
2019-06-08T10:41:35.893Z,15.80
2019-06-08T10:42:39.876Z,15.60
2019-06-08T10:43:38.297Z,15.37
2019-06-08T10:44:38.177Z,17.73
2019-06-08T10:45:37.358Z,16.25
2019-06-08T10:46:40.346Z,16.69
2019-06-08T10:47:37.944Z,16.23
2019-06-08T10:48:37.950Z,15.53
2019-06-08T10:49:38.410Z,16.10
2019-06-08T10:50:37.914Z,15.79
2019-06-08T10:51:40.831Z,15.28
2019-06-08T10:52:39.124Z,15.34
2019-06-08T10:53:46.560Z,16.01
2019-06-08T10:54:39.358Z,15.73
2019-06-08T10:55:40.845Z,16.25
2019-06-08T10:56:39.883Z,15.70
2019-06-08T10:57:40.017Z,16.13
2019-06-08T10:58:40.009Z,15.06
2019-06-08T10:59:40.459Z,14.49
2019-06-08T11:00:39.816Z,15.60
2019-06-08T11:01:40.222Z,15.22
2019-06-08T11:02:40.779Z,14.49
2019-06-08T11:03:40.982Z,14.64
2019-06-08T11:04:43.406Z,15.12
2019-06-08T11:05:41.498Z,15.63
2019-06-08T11:06:41.484Z,15.50
2019-06-08T11:07:42.717Z,14.92
2019-06-08T11:08:42.125Z,14.47
2019-06-08T11:09:42.966Z,14.43
2019-06-08T11:10:43.277Z,13.96
2019-06-08T11:11:43.315Z,14.00
2019-06-08T11:12:44.126Z,14.59
2019-06-08T11:13:44.050Z,14.82
2019-06-08T11:14:45.058Z,15.15
2019-06-08T11:15:44.861Z,15.49
2019-06-08T11:16:47.448Z,15.03
2019-06-08T11:17:45.372Z,14.67
2019-06-08T11:18:45.239Z,14.46
2019-06-08T11:19:47.972Z,15.91
2019-06-08T11:20:47.895Z,14.71
2019-06-08T11:21:48.106Z,14.79
2019-06-08T11:22:49.787Z,15.26
2019-06-08T11:24:04.537Z,14.89
2019-06-08T11:24:48.551Z,14.69
2019-06-08T11:25:48.898Z,15.35
2019-06-08T11:26:47.956Z,14.49
2019-06-08T11:27:47.677Z,15.12
2019-06-08T11:28:51.104Z,15.22
2019-06-08T11:29:48.365Z,14.95
2019-06-08T11:30:48.879Z,14.86
2019-06-08T11:31:51.019Z,14.84
2019-06-08T11:32:48.850Z,15.54
2019-06-08T11:33:49.311Z,15.24
2019-06-08T11:34:49.795Z,15.98
2019-06-08T11:35:49.793Z,15.12
2019-06-08T11:36:51.505Z,14.97
2019-06-08T11:37:50.503Z,15.05
2019-06-08T11:38:50.329Z,15.42
2019-06-08T11:39:51.256Z,15.38
2019-06-08T11:40:51.360Z,15.73
2019-06-08T11:41:51.217Z,15.60
2019-06-08T11:42:51.783Z,16.79
2019-06-08T11:43:52.205Z,16.23
2019-06-08T11:44:52.513Z,14.91
2019-06-08T11:45:52.514Z,15.04
2019-06-08T11:46:52.449Z,15.01
2019-06-08T11:47:53.250Z,14.95
2019-06-08T11:48:53.103Z,14.64
2019-06-08T11:49:53.987Z,14.39
2019-06-08T11:50:54.608Z,14.84
2019-06-08T11:51:53.961Z,13.57
2019-06-08T11:52:54.260Z,13.43
2019-06-08T11:53:55.130Z,13.25
2019-06-08T11:54:57.353Z,14.11
2019-06-08T11:55:58.370Z,13.25
2019-06-08T11:56:57.605Z,13.63
2019-06-08T11:57:58.577Z,12.66
2019-06-08T11:58:57.921Z,12.74
2019-06-08T11:59:58.475Z,14.26
2019-06-08T12:01:00.798Z,14.35
2019-06-08T12:01:58.584Z,13.32
2019-06-08T12:02:58.140Z,14.21
2019-06-08T12:03:58.003Z,14.87
2019-06-08T12:04:57.979Z,14.92
2019-06-08T12:05:58.897Z,13.94
2019-06-08T12:06:59.326Z,15.30
2019-06-08T12:07:59.381Z,14.55
2019-06-08T12:09:00.408Z,15.80
2019-06-08T12:10:00.253Z,15.53
2019-06-08T12:11:01.970Z,14.78
2019-06-08T12:12:00.876Z,15.40
2019-06-08T12:13:00.968Z,14.73
2019-06-08T12:14:00.383Z,14.62
2019-06-08T12:15:03.003Z,13.74
2019-06-08T12:16:02.947Z,15.23
2019-06-08T12:17:03.050Z,14.78
2019-06-08T12:18:03.366Z,14.64
2019-06-08T12:19:04.359Z,13.91
2019-06-08T12:20:03.358Z,14.46
2019-06-08T12:21:03.791Z,14.29
2019-06-08T12:22:01.924Z,16.22
2019-06-08T12:23:03.967Z,15.86
2019-06-08T12:24:04.170Z,14.83
2019-06-08T12:25:03.890Z,15.14
2019-06-08T12:26:04.080Z,14.52
2019-06-08T12:27:14.185Z,14.90
2019-06-08T12:28:04.547Z,14.56
2019-06-08T12:29:05.094Z,13.50
2019-06-08T12:30:08.792Z,13.55
2019-06-08T12:31:04.767Z,14.62
2019-06-08T12:32:04.835Z,14.75
2019-06-08T12:33:04.916Z,14.85
2019-06-08T12:34:05.167Z,15.18
2019-06-08T12:35:05.159Z,14.39
2019-06-08T12:36:06.083Z,15.51
2019-06-08T12:37:08.776Z,14.27
2019-06-08T12:38:09.506Z,14.57
2019-06-08T12:39:05.882Z,14.50
2019-06-08T12:40:09.350Z,15.66
2019-06-08T12:41:09.178Z,15.92
2019-06-08T12:42:11.303Z,15.93
2019-06-08T12:43:09.384Z,15.64
2019-06-08T12:44:09.355Z,14.44
2019-06-08T12:45:07.365Z,15.58
2019-06-08T12:46:10.615Z,15.18
2019-06-08T12:47:12.611Z,15.02
2019-06-08T12:48:10.330Z,14.20
2019-06-08T12:49:08.625Z,14.74
2019-06-08T12:50:11.061Z,14.19
2019-06-08T12:51:11.581Z,15.02
2019-06-08T12:52:12.063Z,15.59
2019-06-08T12:53:13.398Z,14.27
2019-06-08T12:54:11.153Z,14.55
2019-06-08T12:55:14.459Z,14.96
2019-06-08T12:56:11.772Z,14.04
2019-06-08T12:57:13.805Z,13.66
2019-06-08T12:58:11.670Z,15.04
2019-06-08T12:59:14.577Z,14.82
2019-06-08T13:00:13.172Z,14.38
2019-06-08T13:01:12.756Z,14.49
2019-06-08T13:02:15.752Z,14.60
2019-06-08T13:03:12.953Z,14.34
2019-06-08T13:04:12.036Z,13.98
2019-06-08T13:05:15.555Z,13.72
2019-06-08T13:06:14.033Z,13.58